Flagstaff, Arizona
Current Conditions -  °F | °C
As of 9:57 PM on Saturday 22 Nov 2014 (Local Time) from KFLG Reporting Station
Clear Clear  
Wind Chill: 33°   Ceiling: Unl
Heat Index: 38°   Visibility: 10mi
Dew Point: 17°   Wind: 7mph
Humidity: 43%   Direction: NA
Pressure: 30.01"   Gusts: NA
Location:  35.2°N, 111.65°W
Report Text: KFLG 230457Z AUTO VRB06KT 10SM CLR 03/M08 A3001 RMK AO2 SLP114 T00331083 TSNO
Loading
Personal Weather Stations






























Interactive Weather Map New forecast layout! Learn more

10-Day Weather Forecast

Advertisements
Track Severe Weather on mobile